Time;durP1;ratioP1;P1;durP2;ratioP2;P2;SDS_P1;SDS_P2;PMS_P1;PMS_P2;Temp;Humidity;BMP_temperature;BMP_pressure;BME280_temperature;BME280_humidity;BME280_pressure;Samples;Min_cycle;Max_cycle;Signal;HPM_P1;HPM_P2
2022/06/24 00:02:23;;;;;;;3.75;3.45;;;19.30;1.00;;;;;;5072791;28;20271;-74
2022/06/24 00:04:55;;;;;;;3.67;3.35;;;19.40;1.00;;;;;;5072291;28;20210;-74
2022/06/24 00:07:22;;;;;;;2.85;2.65;;;19.40;1.00;;;;;;5072738;28;20206;-73
2022/06/24 00:09:49;;;;;;;2.78;2.47;;;19.30;1.00;;;;;;5073345;28;20267;-74
2022/06/24 00:12:20;;;;;;;5.03;3.30;;;19.20;1.00;;;;;;5072611;28;20206;-74
2022/06/24 00:14:58;;;;;;;3.33;3.03;;;19.20;1.00;;;;;;5073277;28;20272;-74
2022/06/24 00:17:29;;;;;;;3.20;2.88;;;19.10;99.90;;;;;;5072409;28;20206;-74
2022/06/24 00:19:58;;;;;;;2.97;2.67;;;19.10;99.90;;;;;;5072092;28;20199;-74
2022/06/24 00:22:26;;;;;;;3.63;2.78;;;19.10;99.90;;;;;;5072713;28;20206;-74
2022/06/24 00:25:08;;;;;;;3.17;2.88;;;19.10;99.90;;;;;;5072880;28;20210;-74
2022/06/24 00:27:37;;;;;;;4.10;3.47;;;19.10;99.90;;;;;;5073483;28;20210;-74
2022/06/24 00:30:16;;;;;;;3.28;2.25;;;19.00;99.90;;;;;;5073042;28;20210;-73
2022/06/24 00:32:44;;;;;;;4.88;2.95;;;19.00;99.90;;;;;;5072603;28;20631;-74
2022/06/24 00:35:13;;;;;;;3.67;2.72;;;19.00;99.90;;;;;;5072143;28;20660;-74
2022/06/24 00:37:41;;;;;;;2.58;2.38;;;19.00;99.90;;;;;;5072776;28;20252;-74
2022/06/24 00:40:25;;;;;;;4.45;3.00;;;19.10;99.90;;;;;;5072768;28;20206;-74
2022/06/24 00:42:54;;;;;;;3.72;3.42;;;19.20;99.90;;;;;;5072548;28;20263;-74
2022/06/24 00:45:36;;;;;;;3.70;2.72;;;19.20;99.90;;;;;;5071887;28;20237;-73
2022/06/24 00:48:09;;;;;;;6.95;4.43;;;19.30;99.90;;;;;;5072821;28;20252;-73
2022/06/24 00:50:39;;;;;;;3.47;3.17;;;19.20;99.90;;;;;;5072571;28;20206;-74
2022/06/24 00:53:06;;;;;;;4.72;3.33;;;19.20;99.90;;;;;;5072665;28;20260;-74
2022/06/24 00:55:37;;;;;;;4.72;4.07;;;19.10;99.90;;;;;;5072524;28;20240;-74
2022/06/24 00:58:06;;;;;;;6.97;3.78;;;19.00;99.90;;;;;;5072835;28;20205;-74
2022/06/24 01:00:34;;;;;;;4.22;3.67;;;19.10;99.90;;;;;;5072230;28;20284;-74
2022/06/24 01:03:03;;;;;;;2.90;2.70;;;19.20;99.90;;;;;;5072531;28;20210;-73
2022/06/24 01:05:32;;;;;;;4.35;3.25;;;19.20;99.90;;;;;;5072340;28;20578;-73
2022/06/24 01:08:00;;;;;;;2.88;2.67;;;19.00;99.90;;;;;;5072287;28;20327;-73
2022/06/24 01:10:27;;;;;;;3.33;3.03;;;18.90;99.90;;;;;;5071748;28;20666;-73
2022/06/24 01:12:54;;;;;;;4.25;3.08;;;19.10;99.90;;;;;;5072031;28;20279;-73
2022/06/24 01:15:23;;;;;;;3.78;2.88;;;19.10;99.90;;;;;;5071848;28;20416;-73
2022/06/24 01:17:50;;;;;;;7.70;3.13;;;19.00;99.90;;;;;;5072070;28;20655;-74
2022/06/24 01:20:17;;;;;;;3.88;3.53;;;19.10;99.90;;;;;;5071810;28;20276;-74
2022/06/24 01:22:45;;;;;;;4.45;3.22;;;19.10;99.90;;;;;;5071907;28;20263;-73
2022/06/24 01:25:13;;;;;;;4.50;3.50;;;19.00;99.90;;;;;;5071336;28;20209;-73
2022/06/24 01:27:40;;;;;;;3.17;2.53;;;19.00;99.90;;;;;;5071858;28;20587;-74
2022/06/24 01:30:09;;;;;;;11.18;3.58;;;19.20;99.90;;;;;;5071571;28;20202;-73
2022/06/24 01:32:36;;;;;;;4.30;3.03;;;19.30;99.90;;;;;;5071548;28;20739;-73
2022/06/24 01:35:04;;;;;;;3.17;2.85;;;19.30;99.90;;;;;;5071792;28;20635;-75
2022/06/24 01:37:31;;;;;;;4.22;2.92;;;19.30;99.90;;;;;;5071510;28;20761;-75
2022/06/24 01:39:59;;;;;;;3.25;2.95;;;19.30;99.90;;;;;;5071406;28;20206;-75
2022/06/24 01:42:26;;;;;;;3.67;2.40;;;19.20;99.90;;;;;;5071275;28;20214;-75
2022/06/24 01:44:53;;;;;;;3.25;2.60;;;19.00;99.90;;;;;;5071381;28;20206;-75
2022/06/24 01:47:20;;;;;;;2.58;2.38;;;18.90;99.90;;;;;;5071143;28;20210;-75
2022/06/24 01:49:47;;;;;;;3.58;3.13;;;18.90;99.90;;;;;;5071504;28;20267;-74
2022/06/24 01:52:14;;;;;;;3.25;2.95;;;18.90;99.90;;;;;;5070707;28;20261;-75
2022/06/24 01:54:41;;;;;;;3.20;2.90;;;19.00;99.90;;;;;;5071116;28;20295;-75
2022/06/24 01:57:10;;;;;;;2.75;2.38;;;19.10;99.90;;;;;;5071238;28;20202;-72
2022/06/24 01:59:37;;;;;;;4.18;2.70;;;19.10;99.90;;;;;;5071060;28;20271;-74
2022/06/24 02:02:04;;;;;;;4.43;2.80;;;19.10;99.90;;;;;;5071452;28;20292;-73
2022/06/24 02:04:31;;;;;;;4.82;2.90;;;19.10;99.90;;;;;;5070852;28;20613;-73
2022/06/24 02:06:58;;;;;;;2.10;2.00;;;19.10;99.90;;;;;;5071090;28;20242;-73
2022/06/24 02:09:25;;;;;;;4.43;2.65;;;19.00;99.90;;;;;;5070675;28;20210;-74
2022/06/24 02:14:38;;;;;;;2.45;2.25;;;19.00;99.90;;;;;;5070992;28;20204;-73
2022/06/24 02:17:05;;;;;;;2.33;2.13;;;19.00;99.90;;;;;;5070746;28;20214;-74
2022/06/24 02:19:32;;;;;;;2.42;2.22;;;18.80;99.90;;;;;;5070860;28;20827;-75
2022/06/24 02:21:59;;;;;;;4.57;3.15;;;18.80;99.90;;;;;;5071031;28;20237;-73
2022/06/24 02:24:26;;;;;;;2.92;2.65;;;18.70;99.90;;;;;;5070641;28;20206;-75
2022/06/24 02:26:53;;;;;;;3.33;2.90;;;18.60;1.00;;;;;;5068267;28;20211;-72
2022/06/24 02:29:20;;;;;;;2.95;2.70;;;18.50;1.00;;;;;;5063163;28;20280;-74
2022/06/24 02:31:49;;;;;;;2.55;2.35;;;18.40;1.00;;;;;;5070591;28;20621;-75
2022/06/24 02:34:16;;;;;;;3.80;2.05;;;18.20;1.00;;;;;;5070232;28;20202;-76
2022/06/24 02:36:42;;;;;;;2.13;1.92;;;18.00;99.90;;;;;;5082836;28;20588;-74
2022/06/24 02:39:10;;;;;;;3.92;1.88;;;17.90;99.90;;;;;;5072000;28;20263;-74
2022/06/24 02:41:36;;;;;;;2.17;1.42;;;17.80;99.90;;;;;;5074533;28;20209;-74
2022/06/24 02:44:04;;;;;;;3.40;2.05;;;17.80;99.90;;;;;;5073069;28;20255;-75
2022/06/24 02:46:31;;;;;;;2.55;2.13;;;17.70;99.90;;;;;;5072339;28;20217;-75
2022/06/24 02:48:59;;;;;;;1.92;1.73;;;17.80;99.90;;;;;;5070713;28;20681;-74
2022/06/24 02:51:26;;;;;;;3.65;1.50;;;17.80;99.90;;;;;;5071272;28;20285;-75
2022/06/24 02:53:53;;;;;;;4.60;1.77;;;17.80;99.90;;;;;;5071388;28;20263;-75
2022/06/24 02:56:20;;;;;;;2.47;2.05;;;17.90;99.90;;;;;;5072528;28;20351;-75
2022/06/24 02:58:48;;;;;;;2.55;1.58;;;17.90;99.90;;;;;;5072086;28;20731;-76
2022/06/24 03:01:15;;;;;;;2.30;2.10;;;17.70;99.90;;;;;;5074383;28;20212;-75
2022/06/24 03:03:42;;;;;;;1.40;1.20;;;17.90;99.90;;;;;;5073215;28;20214;-76
2022/06/24 03:06:10;;;;;;;1.70;1.52;;;17.80;99.90;;;;;;5074593;28;20201;-76
2022/06/24 03:08:38;;;;;;;5.63;1.88;;;17.80;99.90;;;;;;5073061;28;20670;-76
2022/06/24 03:11:05;;;;;;;2.53;1.80;;;17.90;99.90;;;;;;5069940;28;20224;-76
2022/06/24 03:13:32;;;;;;;2.17;1.67;;;17.90;99.90;;;;;;5069324;28;20202;-75
2022/06/24 03:15:59;;;;;;;1.88;1.58;;;17.90;99.90;;;;;;5070238;28;20283;-75
2022/06/24 03:18:26;;;;;;;3.17;1.80;;;17.90;99.90;;;;;;5069774;28;20626;-75
2022/06/24 03:20:53;;;;;;;1.65;1.55;;;17.70;99.90;;;;;;5070499;28;20214;-75
2022/06/24 03:23:21;;;;;;;2.72;1.63;;;17.70;99.90;;;;;;5069874;28;20198;-75
2022/06/24 03:25:48;;;;;;;2.08;1.50;;;17.70;99.90;;;;;;5069981;28;20202;-77
2022/06/24 03:28:15;;;;;;;4.05;1.95;;;17.70;99.90;;;;;;5069520;28;20206;-76
2022/06/24 03:30:42;;;;;;;2.63;1.30;;;17.70;99.90;;;;;;5070347;28;20205;-76
2022/06/24 03:33:09;;;;;;;3.05;1.40;;;17.70;99.90;;;;;;5069819;28;20214;-75
2022/06/24 03:35:36;;;;;;;3.13;1.50;;;17.70;99.90;;;;;;5069854;28;20717;-75
2022/06/24 03:38:04;;;;;;;3.05;2.00;;;17.70;99.90;;;;;;5070302;28;20633;-76
2022/06/24 03:40:32;;;;;;;3.20;1.67;;;17.80;99.90;;;;;;5069584;28;20202;-78
2022/06/24 03:42:59;;;;;;;3.40;1.85;;;17.80;99.90;;;;;;5069833;28;20271;-75
2022/06/24 03:45:26;;;;;;;2.85;1.70;;;17.70;99.90;;;;;;5069678;28;20206;-76
2022/06/24 03:47:53;;;;;;;2.17;1.40;;;17.80;99.90;;;;;;5070165;28;20210;-74
2022/06/24 03:50:20;;;;;;;3.13;1.52;;;17.90;99.90;;;;;;5069704;28;20206;-76
2022/06/24 03:52:47;;;;;;;2.95;1.80;;;18.00;99.90;;;;;;5070012;28;20206;-75
2022/06/24 03:55:14;;;;;;;2.22;1.50;;;18.00;99.90;;;;;;5069712;28;20210;-76
2022/06/24 03:57:43;;;;;;;3.20;1.65;;;18.10;99.90;;;;;;5073676;28;20572;-76
2022/06/24 04:00:11;;;;;;;1.70;1.60;;;18.00;99.90;;;;;;5073473;28;20206;-75
2022/06/24 04:02:40;;;;;;;1.80;1.67;;;18.10;99.90;;;;;;5073484;28;20206;-76
2022/06/24 04:05:10;;;;;;;4.30;1.60;;;18.10;99.90;;;;;;5073467;28;20206;-75
2022/06/24 04:07:37;;;;;;;1.75;1.58;;;18.00;99.90;;;;;;5073082;28;20209;-75
2022/06/24 04:10:04;;;;;;;2.08;1.73;;;17.80;99.90;;;;;;5073846;28;20214;-75
2022/06/24 04:12:31;;;;;;;1.40;1.30;;;17.80;99.90;;;;;;5073331;28;20262;-75
2022/06/24 04:15:14;;;;;;;2.92;1.40;;;17.70;99.90;;;;;;5073087;28;20658;-75
2022/06/24 04:17:41;;;;;;;2.40;1.45;;;17.80;99.90;;;;;;5073159;28;20202;-75
2022/06/24 04:20:09;;;;;;;3.15;1.73;;;17.80;99.90;;;;;;5072851;28;20203;-76
2022/06/24 04:22:37;;;;;;;2.38;1.58;;;17.90;99.90;;;;;;5073004;28;20202;-75
2022/06/24 04:25:04;;;;;;;1.77;1.63;;;17.90;99.90;;;;;;5073221;28;20210;-75
2022/06/24 04:27:31;;;;;;;2.50;1.83;;;18.00;99.90;;;;;;5072784;28;20210;-74
2022/06/24 04:30:01;;;;;;;2.78;2.45;;;18.00;99.90;;;;;;5073021;28;20312;-74
2022/06/24 04:32:28;;;;;;;2.42;1.38;;;18.00;99.90;;;;;;5072472;28;20799;-74
2022/06/24 04:34:55;;;;;;;4.05;1.90;;;17.90;99.90;;;;;;5072934;28;20624;-74
2022/06/24 04:37:22;;;;;;;2.65;1.67;;;17.90;99.90;;;;;;5072309;28;20291;-74
2022/06/24 04:39:49;;;;;;;1.92;1.75;;;17.90;99.90;;;;;;5073273;28;20202;-74
2022/06/24 04:42:16;;;;;;;2.97;1.90;;;17.90;99.90;;;;;;5072155;28;20214;-74
2022/06/24 04:44:43;;;;;;;3.85;2.47;;;17.90;99.90;;;;;;5072841;28;20202;-74
2022/06/24 04:47:11;;;;;;;2.00;1.83;;;17.80;99.90;;;;;;5071864;28;20210;-73
2022/06/24 04:49:38;;;;;;;4.10;2.30;;;17.80;99.90;;;;;;5067952;28;20210;-73
2022/06/24 04:52:06;;;;;;;2.63;1.75;;;17.80;99.90;;;;;;5065984;28;20206;-74
2022/06/24 04:54:33;;;;;;;4.45;2.15;;;17.90;99.90;;;;;;5073396;28;20198;-73
2022/06/24 04:57:00;;;;;;;3.75;2.50;;;17.90;99.90;;;;;;5073310;28;20236;-74
2022/06/24 04:59:27;;;;;;;4.82;2.00;;;18.00;99.90;;;;;;5072454;28;20202;-75
2022/06/24 05:01:55;;;;;;;4.85;2.70;;;18.00;99.90;;;;;;5073634;28;20256;-75
2022/06/24 05:04:23;;;;;;;5.88;2.55;;;18.10;1.00;;;;;;5071993;28;20210;-74
2022/06/24 05:06:50;;;;;;;4.38;2.80;;;17.90;1.00;;;;;;5071985;28;20629;-71
2022/06/24 05:09:17;;;;;;;4.10;2.88;;;17.60;1.00;;;;;;5072912;28;20701;-72
2022/06/24 05:11:45;;;;;;;4.57;2.78;;;17.20;1.00;;;;;;5072453;28;20292;-72
2022/06/24 05:14:13;;;;;;;5.10;2.47;;;17.20;1.00;;;;;;5071889;28;20214;-80
2022/06/24 05:16:41;;;;;;;4.72;1.35;;;17.10;1.00;;;;;;5076625;28;20236;-71
2022/06/24 05:19:08;;;;;;;3.30;1.63;;;16.60;1.00;;;;;;5091541;28;20201;-73
2022/06/24 05:21:36;;;;;;;1.67;1.30;;;16.40;1.00;;;;;;5091636;28;20213;-73
2022/06/24 05:24:04;;;;;;;1.83;1.38;;;16.40;1.00;;;;;;5082548;28;20295;-72
2022/06/24 05:26:31;;;;;;;1.80;1.50;;;16.40;1.00;;;;;;5072659;28;20685;-72
2022/06/24 05:28:59;;;;;;;3.67;1.40;;;16.50;1.00;;;;;;5071872;28;20202;-74
2022/06/24 05:31:26;;;;;;;2.25;1.55;;;16.80;1.00;;;;;;5071851;28;20756;-70
2022/06/24 05:33:53;;;;;;;1.50;1.40;;;17.00;1.00;;;;;;5072208;28;20251;-70
2022/06/24 05:36:20;;;;;;;1.60;1.30;;;16.80;99.90;;;;;;5071610;28;20783;-71
2022/06/24 05:38:48;;;;;;;1.38;0.90;;;16.60;99.90;;;;;;5074240;28;20210;-72
2022/06/24 05:41:15;;;;;;;1.70;1.10;;;16.50;99.90;;;;;;5072643;28;20685;-72
2022/06/24 05:43:43;;;;;;;1.30;1.05;;;16.40;99.90;;;;;;5075052;28;20662;-72
2022/06/24 05:46:10;;;;;;;3.53;1.73;;;16.40;99.90;;;;;;5073911;28;20217;-70
2022/06/24 05:48:38;;;;;;;2.65;1.65;;;16.40;99.90;;;;;;5075287;28;20205;-68
2022/06/24 05:51:09;;;;;;;4.28;1.77;;;16.40;99.90;;;;;;5076317;28;20209;-69
2022/06/24 05:56:22;;;;;;;1.75;1.45;;;16.40;99.90;;;;;;5075333;28;20237;-68
2022/06/24 05:58:49;;;;;;;3.70;1.58;;;16.30;1.00;;;;;;5078568;28;20214;-70
2022/06/24 06:01:17;;;;;;;3.92;1.83;;;16.50;1.00;;;;;;5077403;28;20666;-69
2022/06/24 06:03:44;;;;;;;1.45;1.35;;;16.50;1.00;;;;;;5078053;28;20301;-70
2022/06/24 06:06:11;;;;;;;1.98;0.85;;;16.40;1.00;;;;;;5078676;28;20673;-76
2022/06/24 06:08:39;;;;;;;1.10;0.98;;;16.40;1.00;;;;;;5070734;28;20210;-75
2022/06/24 06:11:12;;;;;;;2.35;0.77;;;16.40;1.00;;;;;;5070371;28;20202;-72
2022/06/24 06:13:41;;;;;;;0.75;0.70;;;16.30;99.90;;;;;;5070621;28;20216;-72
2022/06/24 06:16:09;;;;;;;4.03;1.00;;;16.30;99.90;;;;;;5070152;28;20238;-73
2022/06/24 06:18:36;;;;;;;2.80;1.13;;;16.30;99.90;;;;;;5069980;28;20206;-75
2022/06/24 06:21:04;;;;;;;1.20;0.50;;;16.60;99.90;;;;;;5063964;28;20283;-76
2022/06/24 06:23:31;;;;;;;5.28;1.20;;;16.90;89.20;;;;;;5069995;28;20233;-81
2022/06/24 06:25:59;;;;;;;1.10;0.80;;;17.10;1.00;;;;;;5070082;28;20206;-80
2022/06/24 06:28:26;;;;;;;1.40;1.00;;;17.50;1.00;;;;;;5056111;28;20203;-76
2022/06/24 06:30:54;;;;;;;2.00;0.77;;;17.80;1.00;;;;;;5067375;28;20259;-80
2022/06/24 06:33:21;;;;;;;1.63;1.48;;;17.60;1.00;;;;;;5077758;28;20210;-79
2022/06/24 06:35:48;;;;;;;1.65;1.35;;;17.30;1.00;;;;;;5073817;28;20206;-79
2022/06/24 06:38:16;;;;;;;3.45;1.40;;;17.30;1.00;;;;;;5077449;28;20761;-79
2022/06/24 06:40:43;;;;;;;1.50;1.15;;;17.50;1.00;;;;;;5087921;28;20288;-79
2022/06/24 06:43:10;;;;;;;1.10;1.00;;;17.60;99.90;;;;;;5089707;28;20194;-79
2022/06/24 06:45:38;;;;;;;1.73;1.40;;;18.10;99.90;;;;;;5089539;28;20213;-80
2022/06/24 06:48:08;;;;;;;1.25;1.10;;;18.50;99.90;;;;;;5075043;28;20343;-76
2022/06/24 06:50:35;;;;;;;2.20;1.10;;;18.70;99.90;;;;;;5071822;28;20743;-79
2022/06/24 06:53:03;;;;;;;2.30;1.20;;;18.20;99.90;;;;;;5058894;28;20206;-81
2022/06/24 06:55:30;;;;;;;2.28;0.98;;;17.80;99.90;;;;;;5069449;28;20285;-81
2022/06/24 06:58:00;;;;;;;1.80;0.98;;;17.30;99.90;;;;;;5062518;28;20226;-81
2022/06/24 07:00:27;;;;;;;2.25;0.85;;;17.10;99.90;;;;;;5071900;28;20210;-82
2022/06/24 07:02:54;;;;;;;2.28;1.02;;;17.10;99.90;;;;;;5063862;28;20206;-77
2022/06/24 07:05:23;;;;;;;2.13;0.77;;;17.30;1.00;;;;;;5069917;28;20210;-82
2022/06/24 07:07:50;;;;;;;1.52;0.73;;;17.40;1.00;;;;;;5070723;28;20202;-79
2022/06/24 07:10:16;;;;;;;3.92;2.60;;;17.50;99.90;;;;;;5070381;28;20206;-78
2022/06/24 07:12:43;;;;;;;1.15;0.88;;;17.40;99.90;;;;;;5056029;28;20260;-81
2022/06/24 07:15:14;;;;;;;1.75;0.63;;;17.60;99.90;;;;;;5070269;28;20202;-80
2022/06/24 07:17:41;;;;;;;2.25;0.80;;;17.70;99.90;;;;;;5070300;28;20290;-81
2022/06/24 07:20:09;;;;;;;0.98;0.88;;;17.90;99.90;;;;;;5070057;28;20199;-76
2022/06/24 07:22:37;;;;;;;0.90;0.60;;;18.20;99.90;;;;;;5070287;28;20218;-80
2022/06/24 07:25:05;;;;;;;1.00;0.70;;;18.00;99.90;;;;;;5070659;28;20198;-77
2022/06/24 07:27:32;;;;;;;3.10;0.80;;;17.90;99.90;;;;;;5070017;28;20256;-79
2022/06/24 07:29:59;;;;;;;0.82;0.50;;;17.90;99.90;;;;;;5071757;28;20632;-78
2022/06/24 07:32:26;;;;;;;0.98;0.55;;;17.90;99.90;;;;;;5073850;28;20255;-76
2022/06/24 07:34:53;;;;;;;1.05;0.80;;;17.90;99.90;;;;;;5074194;28;20256;-76
2022/06/24 07:37:20;;;;;;;0.93;0.57;;;17.80;99.90;;;;;;5073622;28;20244;-76
2022/06/24 07:39:49;;;;;;;0.85;0.70;;;17.80;99.90;;;;;;5073856;28;20206;-76
2022/06/24 07:42:16;;;;;;;1.65;0.60;;;17.70;99.90;;;;;;5073291;28;20261;-76
2022/06/24 07:44:43;;;;;;;2.05;0.60;;;17.70;99.90;;;;;;5074113;28;20202;-77
2022/06/24 07:47:10;;;;;;;0.73;0.60;;;17.70;99.90;;;;;;5072430;28;20206;-75
2022/06/24 07:49:37;;;;;;;1.88;0.80;;;17.80;99.90;;;;;;5070832;28;20203;-75
2022/06/24 07:52:05;;;;;;;1.95;0.70;;;17.80;99.90;;;;;;5073757;28;20206;-76
2022/06/24 07:54:32;;;;;;;1.00;0.80;;;17.90;99.90;;;;;;5073535;28;20675;-76
2022/06/24 07:56:59;;;;;;;1.15;0.80;;;18.10;99.90;;;;;;5073323;28;20234;-76
2022/06/24 07:59:28;;;;;;;2.88;1.00;;;18.30;99.90;;;;;;5073415;28;20214;-76
2022/06/24 08:01:55;;;;;;;1.65;0.80;;;18.60;99.90;;;;;;5073281;28;20260;-77
2022/06/24 08:04:23;;;;;;;0.90;0.90;;;18.90;99.90;;;;;;5073039;28;20634;-76
2022/06/24 08:06:52;;;;;;;1.38;1.05;;;19.80;99.90;;;;;;5073278;28;20567;-76
2022/06/24 08:09:20;;;;;;;0.80;0.65;;;20.10;99.90;;;;;;5072710;28;20206;-77
2022/06/24 08:11:47;;;;;;;1.23;1.08;;;20.10;99.90;;;;;;5073222;28;20203;-77
2022/06/24 08:14:17;;;;;;;0.70;0.60;;;19.70;99.90;;;;;;5073185;28;20207;-76
2022/06/24 08:16:45;;;;;;;1.10;0.70;;;19.30;99.90;;;;;;5073222;28;20199;-75
2022/06/24 08:19:13;;;;;;;1.33;0.98;;;19.20;99.90;;;;;;5072929;28;20641;-75
2022/06/24 08:21:40;;;;;;;2.83;1.13;;;19.30;99.90;;;;;;5073136;28;20252;-76
2022/06/24 08:24:07;;;;;;;1.08;0.70;;;19.40;99.90;;;;;;5073188;28;20260;-75
2022/06/24 08:26:34;;;;;;;0.80;0.70;;;19.40;99.90;;;;;;5073184;28;20210;-76
2022/06/24 08:29:02;;;;;;;1.23;1.10;;;19.60;99.90;;;;;;5073522;28;20255;-77
2022/06/24 08:31:30;;;;;;;2.30;1.35;;;20.00;99.90;;;;;;5072570;28;20210;-77
2022/06/24 08:33:57;;;;;;;0.90;0.70;;;21.10;99.90;;;;;;5073079;28;20272;-75
2022/06/24 08:36:26;;;;;;;1.17;0.73;;;21.30;99.90;;;;;;5072597;28;20739;-77
2022/06/24 08:38:53;;;;;;;1.00;0.82;;;21.30;99.90;;;;;;5072632;28;20233;-75
2022/06/24 08:41:23;;;;;;;2.10;1.02;;;21.00;99.90;;;;;;5071578;28;20263;-75
2022/06/24 08:43:51;;;;;;;1.15;0.93;;;21.70;99.90;;;;;;5072539;28;20206;-75
2022/06/24 08:46:18;;;;;;;8.68;1.20;;;22.10;99.90;;;;;;5072421;28;20206;-75
2022/06/24 08:48:47;;;;;;;2.05;1.10;;;22.60;99.90;;;;;;5072797;28;20251;-75
2022/06/24 08:51:15;;;;;;;0.93;0.93;;;22.50;99.90;;;;;;5072316;28;20743;-75
2022/06/24 08:53:43;;;;;;;0.50;0.50;;;22.00;99.90;;;;;;5072628;28;20294;-75
2022/06/24 08:56:10;;;;;;;1.85;0.85;;;21.70;99.90;;;;;;5072121;28;20555;-75
2022/06/24 08:58:38;;;;;;;1.48;0.70;;;21.80;99.90;;;;;;5072296;28;20238;-75
2022/06/24 09:01:05;;;;;;;1.00;0.90;;;21.50;99.90;;;;;;5072554;28;20234;-74
2022/06/24 09:03:32;;;;;;;3.30;0.70;;;22.30;99.90;;;;;;5072282;28;20255;-75
2022/06/24 09:06:10;;;;;;;1.15;1.00;;;23.20;99.90;;;;;;5072087;28;20747;-76
2022/06/24 09:08:37;;;;;;;0.70;0.63;;;22.30;99.90;;;;;;5072469;28;20213;-75
2022/06/24 09:11:08;;;;;;;0.88;0.77;;;21.50;99.90;;;;;;5072466;28;20624;-75
2022/06/24 09:13:43;;;;;;;2.38;0.70;;;22.50;99.90;;;;;;5072251;28;20260;-73
2022/06/24 09:16:11;;;;;;;1.05;0.68;;;22.70;99.90;;;;;;5071539;28;20206;-75
2022/06/24 09:18:38;;;;;;;1.88;0.90;;;22.30;99.90;;;;;;5072355;28;20233;-74
2022/06/24 09:21:06;;;;;;;2.83;0.98;;;22.40;99.90;;;;;;5072442;28;20264;-72
2022/06/24 09:23:51;;;;;;;2.05;1.52;;;22.50;99.90;;;;;;5071963;28;20666;-74
2022/06/24 09:26:33;;;;;;;0.93;0.80;;;22.30;99.90;;;;;;5071417;28;20202;-73
2022/06/24 09:29:00;;;;;;;0.90;0.77;;;22.30;99.90;;;;;;5071619;28;20650;-73
2022/06/24 09:31:28;;;;;;;0.70;0.70;;;22.90;99.90;;;;;;5071490;28;20244;-73
2022/06/24 09:33:56;;;;;;;0.77;0.77;;;24.00;99.90;;;;;;5071923;28;20328;-73
2022/06/24 09:36:26;;;;;;;1.38;1.10;;;23.20;99.90;;;;;;5071392;28;20206;-73
2022/06/24 09:38:59;;;;;;;0.68;0.68;;;22.40;99.90;;;;;;5071405;28;20229;-73
2022/06/24 09:41:27;;;;;;;1.20;0.82;;;22.50;99.90;;;;;;5071299;28;20270;-72
2022/06/24 09:43:57;;;;;;;1.10;0.90;;;22.80;99.90;;;;;;5071097;28;20579;-72
2022/06/24 09:46:26;;;;;;;1.45;1.35;;;23.10;99.90;;;;;;5071825;28;20279;-72
2022/06/24 09:49:01;;;;;;;1.20;1.10;;;25.50;99.90;;;;;;5071465;28;20198;-72
2022/06/24 09:51:31;;;;;;;1.42;1.33;;;29.60;99.90;;;;;;5066658;28;20738;-72
2022/06/24 09:53:58;;;;;;;1.55;1.45;;;29.80;99.90;;;;;;5071104;28;20255;-72
2022/06/24 09:56:25;;;;;;;2.10;1.85;;;30.20;99.90;;;;;;5071071;28;20214;-72
2022/06/24 10:01:35;;;;;;;1.80;1.38;;;27.30;99.90;;;;;;5071267;28;20237;-73
2022/06/24 10:04:04;;;;;;;2.78;1.17;;;29.80;99.90;;;;;;5062951;28;20221;-73
2022/06/24 10:06:35;;;;;;;1.23;1.13;;;29.00;99.90;;;;;;5070713;28;20202;-73
2022/06/24 10:09:05;;;;;;;2.13;1.48;;;27.70;99.90;;;;;;5070895;28;20206;-72
2022/06/24 10:11:34;;;;;;;1.88;1.10;;;25.00;99.90;;;;;;5070500;28;20202;-72
2022/06/24 10:14:02;;;;;;;2.65;1.23;;;23.40;99.90;;;;;;5070591;28;20206;-73
2022/06/24 10:16:29;;;;;;;1.92;1.27;;;26.20;99.90;;;;;;5070055;28;20259;-73
2022/06/24 10:18:58;;;;;;;1.75;0.98;;;28.90;99.90;;;;;;5071192;28;20292;-73
2022/06/24 10:21:26;;;;;;;1.25;1.15;;;26.70;99.90;;;;;;5069741;28;20206;-73
2022/06/24 10:23:56;;;;;;;1.88;1.42;;;24.40;99.90;;;;;;5070849;28;20738;-74
2022/06/24 10:26:27;;;;;;;1.30;1.20;;;24.10;99.90;;;;;;5066992;28;20293;-75
2022/06/24 10:29:19;;;;;;;1.30;1.20;;;27.70;99.90;;;;;;5070104;28;20264;-73
2022/06/24 10:32:07;;;;;;;5.05;3.30;;;32.00;99.90;;;;;;5070665;28;20213;-75
2022/06/24 10:34:46;;;;;;;2.05;1.52;;;32.50;99.90;;;;;;5070903;28;20206;-75
2022/06/24 10:37:27;;;;;;;3.53;1.40;;;30.50;99.90;;;;;;5070277;28;20206;-72
2022/06/24 10:39:58;;;;;;;2.20;1.63;;;26.30;99.90;;;;;;5064828;28;20327;-72
2022/06/24 10:42:25;;;;;;;2.75;1.52;;;24.80;99.90;;;;;;5070073;28;20282;-73
2022/06/24 10:45:00;;;;;;;7.18;3.92;;;24.20;99.90;;;;;;5070390;28;20708;-72
2022/06/24 10:47:39;;;;;;;1.58;1.48;;;23.60;99.90;;;;;;5070165;28;20240;-76
2022/06/24 10:50:20;;;;;;;4.07;3.08;;;23.00;99.90;;;;;;5069915;28;20568;-72
2022/06/24 10:53:02;;;;;;;1.92;1.42;;;23.80;99.90;;;;;;5069080;28;20213;-72
2022/06/24 10:55:36;;;;;;;1.23;0.95;;;24.60;99.90;;;;;;5069370;28;20206;-72
2022/06/24 10:58:05;;;;;;;1.45;1.35;;;25.10;99.90;;;;;;5070443;28;20275;-73
2022/06/24 11:00:48;;;;;;;2.05;1.63;;;25.40;99.90;;;;;;5070414;28;20206;-72
2022/06/24 11:03:19;;;;;;;2.85;1.25;;;24.50;99.90;;;;;;5069300;28;20232;-72
2022/06/24 11:05:47;;;;;;;6.47;1.38;;;24.00;99.90;;;;;;5076227;28;20553;-72
2022/06/24 11:08:16;;;;;;;1.20;1.10;;;23.60;99.90;;;;;;5076161;28;20689;-73
2022/06/24 11:10:47;;;;;;;1.75;1.65;;;23.30;99.90;;;;;;5076433;28;20205;-71
2022/06/24 11:13:14;;;;;;;1.13;1.02;;;23.00;99.90;;;;;;5075485;28;20216;-72
2022/06/24 11:15:44;;;;;;;1.92;1.30;;;23.20;99.90;;;;;;5076684;28;20206;-72
2022/06/24 11:18:12;;;;;;;1.45;1.08;;;23.50;99.90;;;;;;5075557;28;20233;-75
2022/06/24 11:20:41;;;;;;;1.60;1.20;;;23.70;99.90;;;;;;5076178;28;20206;-71
2022/06/24 11:23:08;;;;;;;1.55;1.15;;;23.50;99.90;;;;;;5075657;28;20210;-74
2022/06/24 11:25:36;;;;;;;2.88;2.05;;;23.40;99.90;;;;;;5075766;28;20202;-71
2022/06/24 11:28:05;;;;;;;1.35;1.25;;;23.00;99.90;;;;;;5075991;28;20580;-71
2022/06/24 11:30:32;;;;;;;2.40;1.70;;;23.10;99.90;;;;;;5076384;28;20259;-70
2022/06/24 11:33:01;;;;;;;1.90;0.82;;;23.60;99.90;;;;;;5075830;28;20205;-71
2022/06/24 11:35:29;;;;;;;1.95;0.95;;;23.80;99.90;;;;;;5075525;28;20601;-72
2022/06/24 11:37:57;;;;;;;7.75;2.00;;;23.80;99.90;;;;;;5074736;28;20307;-71
2022/06/24 11:40:26;;;;;;;1.42;1.30;;;24.20;99.90;;;;;;5075476;28;20282;-72
2022/06/24 11:42:54;;;;;;;1.98;1.52;;;24.50;99.90;;;;;;5076527;28;20210;-78
2022/06/24 11:45:36;;;;;;;1.08;0.98;;;24.40;99.90;;;;;;5076128;28;20202;-74
2022/06/24 11:48:06;;;;;;;0.82;0.82;;;24.20;99.90;;;;;;5076814;28;20568;-72
2022/06/24 11:50:33;;;;;;;3.50;1.10;;;24.20;99.90;;;;;;5076286;28;20203;-71
2022/06/24 11:53:00;;;;;;;1.30;1.15;;;24.40;99.90;;;;;;5076356;28;20209;-72
2022/06/24 11:55:30;;;;;;;1.38;1.05;;;24.30;99.90;;;;;;5076350;28;20559;-72
2022/06/24 11:57:59;;;;;;;2.15;1.05;;;24.40;99.90;;;;;;5080559;28;20205;-75
2022/06/24 12:00:28;;;;;;;1.20;1.10;;;24.80;99.90;;;;;;5077872;28;20207;-76
2022/06/24 12:02:58;;;;;;;2.35;1.23;;;25.10;99.90;;;;;;5076059;28;20210;-72
2022/06/24 12:05:27;;;;;;;1.88;0.85;;;25.30;99.90;;;;;;5075822;28;20651;-70
2022/06/24 12:07:56;;;;;;;2.35;1.30;;;25.50;99.90;;;;;;5077388;28;20202;-71
2022/06/24 12:10:23;;;;;;;1.85;1.23;;;25.40;99.90;;;;;;5071141;28;20677;-70
2022/06/24 12:12:59;;;;;;;1.45;1.35;;;25.40;99.90;;;;;;5077259;28;20267;-70
2022/06/24 12:15:28;;;;;;;2.22;1.25;;;25.00;99.90;;;;;;5068945;28;20214;-70
2022/06/24 12:17:57;;;;;;;1.17;1.15;;;24.60;99.90;;;;;;5072308;28;20218;-71
2022/06/24 12:20:25;;;;;;;1.35;1.10;;;25.30;99.90;;;;;;5072987;28;20210;-70
2022/06/24 12:23:15;;;;;;;1.10;1.00;;;25.30;99.90;;;;;;5076611;28;20201;-69
2022/06/24 12:25:43;;;;;;;0.80;0.80;;;24.60;99.90;;;;;;5084534;28;20216;-69
2022/06/24 12:28:17;;;;;;;1.42;1.30;;;24.00;99.90;;;;;;5081168;28;20213;-71
2022/06/24 12:30:54;;;;;;;1.38;1.20;;;23.70;99.90;;;;;;5081023;28;20249;-70
2022/06/24 12:33:24;;;;;;;2.00;1.77;;;23.50;99.90;;;;;;5073862;28;20251;-70
2022/06/24 12:36:10;;;;;;;1.88;1.45;;;23.40;99.90;;;;;;5079064;28;20206;-70
2022/06/24 12:38:39;;;;;;;2.22;0.98;;;23.80;99.90;;;;;;5080657;28;20647;-71
2022/06/24 12:41:18;;;;;;;1.85;1.58;;;24.00;99.90;;;;;;5083919;28;20206;-70
2022/06/24 12:43:59;;;;;;;1.15;1.02;;;23.80;99.90;;;;;;5078852;28;20206;-70
2022/06/24 12:46:38;;;;;;;1.52;0.90;;;24.40;99.90;;;;;;5082147;28;20289;-72
2022/06/24 12:51:59;;;;;;;1.10;1.00;;;24.40;99.90;;;;;;5080361;28;20591;-71
2022/06/24 12:54:26;;;;;;;1.80;1.40;;;23.90;99.90;;;;;;5072698;28;20666;-72
2022/06/24 12:56:53;;;;;;;0.93;0.80;;;24.10;99.90;;;;;;5071699;28;20271;-73
2022/06/24 12:59:21;;;;;;;1.10;1.08;;;23.70;99.90;;;;;;5070497;28;20230;-73
2022/06/24 13:01:48;;;;;;;1.50;1.40;;;24.20;99.90;;;;;;5072037;28;20298;-70
2022/06/24 13:04:16;;;;;;;2.25;1.30;;;24.90;99.90;;;;;;5071812;28;20644;-72
2022/06/24 13:06:43;;;;;;;3.53;0.93;;;25.50;99.90;;;;;;5073504;28;20197;-72
2022/06/24 13:09:10;;;;;;;1.38;1.27;;;25.90;99.90;;;;;;5073250;28;20263;-75